createdAt,value
2022-08-07T00:03:55.188Z,1.80
2022-08-07T00:08:59.604Z,1.60
2022-08-07T00:14:20.833Z,1.40
2022-08-07T00:19:59.529Z,2.50
2022-08-07T00:24:56.046Z,1.40
2022-08-07T00:30:00.720Z,1.70
2022-08-07T00:35:05.512Z,1.30
2022-08-07T00:40:15.677Z,1.60
2022-08-07T00:45:41.341Z,1.10
2022-08-07T00:50:51.698Z,1.40
2022-08-07T00:56:02.952Z,1.70
2022-08-07T01:01:08.904Z,1.50
2022-08-07T01:06:13.161Z,1.20
2022-08-07T01:12:23.439Z,1.10
2022-08-07T01:16:43.221Z,1.60
2022-08-07T01:21:55.305Z,1.60
2022-08-07T01:27:01.540Z,2.10
2022-08-07T01:32:12.324Z,1.10
2022-08-07T01:37:18.926Z,1.50
2022-08-07T01:42:38.434Z,1.50
2022-08-07T01:48:29.920Z,1.70
2022-08-07T01:53:09.907Z,1.50
2022-08-07T01:58:33.068Z,1.20
2022-08-07T02:03:49.003Z,1.60
2022-08-07T02:08:56.316Z,1.80
2022-08-07T02:14:02.755Z,1.40
2022-08-07T02:20:05.659Z,1.60
2022-08-07T02:24:37.723Z,2.80
2022-08-07T02:29:54.796Z,2.20
2022-08-07T02:35:00.859Z,1.60
2022-08-07T02:40:30.088Z,1.80
2022-08-07T02:45:59.117Z,1.80
2022-08-07T02:51:14.280Z,2.00
2022-08-07T02:56:36.815Z,2.50
2022-08-07T03:01:47.215Z,2.20
2022-08-07T03:06:57.570Z,1.80
2022-08-07T03:12:03.287Z,2.00
2022-08-07T03:17:08.791Z,1.70
2022-08-07T03:22:18.563Z,2.00
2022-08-07T03:27:30.547Z,2.10
2022-08-07T03:32:58.243Z,2.10
2022-08-07T03:38:07.256Z,2.70
2022-08-07T03:43:16.246Z,2.30
2022-08-07T03:48:20.146Z,2.40
2022-08-07T03:53:49.919Z,1.60
2022-08-07T03:59:09.436Z,2.90
2022-08-07T04:04:18.052Z,1.40
2022-08-07T04:09:23.018Z,1.90
2022-08-07T04:14:37.616Z,2.50
2022-08-07T04:19:52.728Z,2.10
2022-08-07T04:25:00.954Z,1.90
2022-08-07T04:30:11.889Z,2.30
2022-08-07T04:35:28.662Z,2.40
2022-08-07T04:40:51.266Z,1.90
2022-08-07T04:46:12.302Z,1.80
2022-08-07T04:51:32.764Z,1.90
2022-08-07T04:58:11.156Z,2.60
2022-08-07T05:02:33.378Z,2.70
2022-08-07T05:08:03.983Z,2.30
2022-08-07T05:14:56.349Z,1.90
2022-08-07T05:18:49.019Z,2.10
2022-08-07T05:23:58.864Z,1.90
2022-08-07T05:29:04.967Z,2.20
2022-08-07T05:34:15.661Z,2.30
2022-08-07T05:40:17.544Z,1.90
2022-08-07T05:45:04.499Z,2.40
2022-08-07T05:50:11.335Z,2.20
2022-08-07T05:55:18.760Z,1.70
2022-08-07T06:00:24.164Z,1.40
2022-08-07T06:05:31.867Z,1.70
2022-08-07T06:10:37.887Z,1.30
2022-08-07T06:15:43.035Z,1.40
2022-08-07T06:20:51.102Z,1.80
2022-08-07T06:26:15.496Z,2.00
2022-08-07T06:31:19.479Z,1.60
2022-08-07T06:36:35.294Z,1.50
2022-08-07T06:42:00.408Z,2.00
2022-08-07T06:47:10.631Z,2.00
2022-08-07T06:52:19.056Z,1.70
2022-08-07T06:57:39.617Z,1.70
2022-08-07T07:02:58.289Z,1.10
2022-08-07T07:08:07.319Z,0.80
2022-08-07T07:13:55.606Z,1.70
2022-08-07T07:19:33.866Z,1.00
2022-08-07T07:24:35.285Z,0.90
2022-08-07T07:30:09.076Z,1.10
2022-08-07T07:35:12.920Z,1.10
2022-08-07T07:40:20.882Z,1.10
2022-08-07T07:46:37.884Z,0.70
2022-08-07T07:51:00.116Z,1.20
2022-08-07T07:56:07.195Z,0.90
2022-08-07T08:02:01.706Z,0.80
2022-08-07T08:06:36.917Z,0.80
2022-08-07T08:11:59.620Z,1.50
2022-08-07T08:17:55.385Z,1.00
2022-08-07T08:23:01.088Z,0.60
2022-08-07T08:28:09.535Z,1.40
2022-08-07T08:33:19.326Z,0.90
2022-08-07T08:38:41.083Z,0.70
2022-08-07T08:44:02.958Z,0.70
2022-08-07T08:49:33.186Z,0.70
2022-08-07T08:55:21.044Z,0.70
2022-08-07T09:00:51.793Z,0.90
2022-08-07T09:06:11.371Z,0.60
2022-08-07T09:11:24.167Z,1.20
2022-08-07T09:17:08.680Z,0.90
2022-08-07T09:24:34.079Z,0.70
2022-08-07T09:30:01.001Z,0.70
2022-08-07T09:34:29.156Z,0.60
2022-08-07T09:40:05.852Z,0.90
2022-08-07T09:47:51.427Z,0.90
2022-08-07T09:52:10.321Z,1.30
2022-08-07T09:57:02.431Z,0.70
2022-08-07T10:02:08.344Z,0.80
2022-08-07T10:07:52.373Z,1.20
2022-08-07T10:13:29.776Z,0.80
2022-08-07T10:18:59.569Z,1.00
2022-08-07T10:24:46.187Z,0.90
2022-08-07T10:30:22.554Z,1.10
2022-08-07T10:35:53.521Z,0.90
2022-08-07T10:41:51.486Z,0.50
2022-08-07T10:47:14.725Z,1.00
2022-08-07T10:52:42.712Z,1.20
2022-08-07T10:58:36.658Z,0.90
2022-08-07T11:04:16.668Z,0.70
2022-08-07T11:10:07.340Z,0.90
2022-08-07T11:15:02.333Z,0.80
2022-08-07T11:20:18.600Z,1.30
2022-08-07T11:30:56.056Z,0.80
2022-08-07T11:36:37.626Z,1.00
2022-08-07T11:42:01.595Z,0.60
2022-08-07T11:47:39.120Z,1.00
2022-08-07T11:53:17.010Z,0.80
2022-08-07T11:58:57.201Z,0.70
2022-08-07T12:04:32.764Z,1.20
2022-08-07T12:09:46.119Z,0.90
2022-08-07T12:15:35.594Z,1.00
2022-08-07T12:20:55.588Z,1.00
2022-08-07T12:26:23.425Z,0.90
2022-08-07T12:31:53.079Z,0.80
2022-08-07T12:37:08.430Z,0.90
2022-08-07T12:42:27.748Z,1.00
2022-08-07T12:47:57.943Z,0.80
2022-08-07T12:53:17.497Z,0.70
2022-08-07T12:58:28.205Z,0.90
2022-08-07T13:10:21.574Z,0.70
2022-08-07T13:15:43.176Z,0.90
2022-08-07T13:20:54.176Z,0.80
2022-08-07T13:26:15.860Z,0.80
2022-08-07T13:31:32.144Z,1.00
2022-08-07T13:37:10.930Z,0.80
2022-08-07T13:42:28.881Z,0.70
2022-08-07T13:48:06.017Z,0.60
2022-08-07T13:53:02.140Z,1.00
2022-08-07T14:04:07.079Z,0.60
2022-08-07T14:09:05.119Z,1.20
2022-08-07T14:14:13.375Z,1.00
2022-08-07T14:20:42.076Z,1.10
2022-08-07T14:25:03.755Z,1.20
2022-08-07T14:30:12.765Z,1.60
2022-08-07T14:35:43.279Z,1.50
2022-08-07T14:40:59.207Z,1.60
2022-08-07T14:46:17.775Z,1.80
2022-08-07T14:56:56.572Z,1.70
2022-08-07T15:02:33.137Z,2.20
2022-08-07T15:07:51.347Z,1.80
2022-08-07T15:13:01.061Z,1.90
2022-08-07T15:18:33.923Z,2.40
2022-08-07T15:25:14.122Z,3.20
2022-08-07T15:30:06.371Z,2.70
2022-08-07T15:34:56.977Z,2.80
2022-08-07T15:40:11.287Z,3.20
2022-08-07T15:45:58.224Z,3.00
2022-08-07T15:51:09.991Z,2.70
2022-08-07T15:56:37.280Z,3.20
2022-08-07T16:02:02.446Z,3.00
2022-08-07T16:08:30.206Z,3.00
2022-08-07T16:13:17.548Z,2.90
2022-08-07T16:18:51.052Z,2.90
2022-08-07T16:24:34.316Z,3.50
2022-08-07T16:30:11.777Z,2.60
2022-08-07T16:35:56.844Z,2.70
2022-08-07T16:41:18.667Z,1.80
2022-08-07T16:47:04.809Z,1.70
2022-08-07T16:52:57.299Z,1.50
2022-08-07T16:58:08.007Z,1.60
2022-08-07T17:03:17.140Z,2.00
2022-08-07T17:09:10.477Z,1.60
2022-08-07T17:14:33.729Z,2.00
2022-08-07T17:20:02.157Z,2.50
2022-08-07T17:25:47.729Z,1.90
2022-08-07T17:30:58.360Z,2.10
2022-08-07T17:36:29.124Z,2.20
2022-08-07T17:42:02.664Z,1.90
2022-08-07T17:47:17.154Z,1.90
2022-08-07T17:52:41.517Z,1.90
2022-08-07T17:57:58.523Z,1.80
2022-08-07T18:03:17.948Z,2.20
2022-08-07T18:13:46.474Z,2.30
2022-08-07T18:21:10.227Z,1.60
2022-08-07T18:24:43.131Z,1.90
2022-08-07T18:30:32.489Z,2.50
2022-08-07T18:35:57.355Z,2.20
2022-08-07T18:41:57.402Z,2.50
2022-08-07T18:47:22.719Z,2.50
2022-08-07T18:52:58.931Z,2.50
2022-08-07T18:58:15.149Z,2.60
2022-08-07T19:03:35.420Z,2.70
2022-08-07T19:08:46.622Z,3.50
2022-08-07T19:14:07.855Z,2.90
2022-08-07T19:19:27.821Z,3.70
2022-08-07T19:24:48.030Z,3.60
2022-08-07T19:30:55.312Z,4.00
2022-08-07T19:35:33.589Z,3.60
2022-08-07T19:40:50.394Z,5.00
2022-08-07T19:46:07.940Z,3.40
2022-08-07T19:51:19.197Z,3.70
2022-08-07T19:58:01.162Z,4.20
2022-08-07T20:01:57.881Z,4.00
2022-08-07T20:12:31.784Z,2.90
2022-08-07T20:17:38.641Z,4.00
2022-08-07T20:22:47.618Z,4.10
2022-08-07T20:27:58.645Z,4.20
2022-08-07T20:33:36.333Z,4.50
2022-08-07T20:38:36.485Z,4.90
2022-08-07T20:44:01.250Z,4.80
2022-08-07T20:49:57.993Z,5.80
2022-08-07T20:54:31.956Z,3.90
2022-08-07T21:00:08.144Z,4.30
2022-08-07T21:05:10.127Z,4.60
2022-08-07T21:10:25.313Z,3.50
2022-08-07T21:15:58.071Z,4.20
2022-08-07T21:21:04.428Z,3.50
2022-08-07T21:26:20.897Z,3.20
2022-08-07T21:32:10.869Z,3.40
2022-08-07T21:37:12.137Z,3.90
2022-08-07T21:42:42.534Z,3.10
2022-08-07T21:48:08.211Z,3.40
2022-08-07T21:53:36.989Z,3.60
2022-08-07T21:59:14.330Z,3.40
2022-08-07T22:04:26.755Z,3.60
2022-08-07T22:09:53.743Z,5.00
2022-08-07T22:16:40.039Z,3.00
2022-08-07T22:20:50.134Z,3.00
2022-08-07T22:26:21.338Z,3.70
2022-08-07T22:31:58.894Z,3.70
2022-08-07T22:37:23.690Z,3.80
2022-08-07T22:42:35.085Z,3.30
2022-08-07T22:48:55.038Z,4.10
2022-08-07T22:54:09.831Z,4.30
2022-08-07T22:59:32.671Z,3.90
2022-08-07T23:06:10.234Z,4.00
2022-08-07T23:10:43.768Z,3.80
2022-08-07T23:16:48.381Z,4.00
2022-08-07T23:22:39.177Z,3.60
2022-08-07T23:28:20.043Z,4.30
2022-08-07T23:34:34.864Z,3.20
2022-08-07T23:39:40.818Z,4.60
2022-08-07T23:45:15.164Z,3.20
2022-08-07T23:50:30.329Z,3.90
2022-08-07T23:55:55.647Z,3.10
